Time;durP1;ratioP1;P1;durP2;ratioP2;P2;SDS_P1;SDS_P2;PMS_P1;PMS_P2;Temp;Humidity;BMP_temperature;BMP_pressure;BME280_temperature;BME280_humidity;BME280_pressure;Samples;Min_cycle;Max_cycle;Signal;HPM_P1;HPM_P2
2023/05/10 00:01:01;;;;;;;2.70;1.40;;;;;;;15.99;nan;99037.22;5050752;28;20273;-81
2023/05/10 00:03:26;;;;;;;1.30;1.20;;;;;;;16.01;nan;99037.03;5049100;28;20232;-82
2023/05/10 00:05:51;;;;;;;3.23;1.10;;;;;;;15.99;nan;99034.56;5052387;28;20307;-81
2023/05/10 00:08:17;;;;;;;1.30;1.20;;;;;;;15.98;nan;99040.81;5049664;28;20209;-82
2023/05/10 00:10:43;;;;;;;5.20;1.30;;;;;;;15.97;nan;99031.22;5049835;28;20234;-81
2023/05/10 00:13:08;;;;;;;1.90;1.20;;;;;;;15.96;nan;99034.00;5049652;28;20206;-81
2023/05/10 00:15:34;;;;;;;1.63;1.17;;;;;;;15.94;nan;99034.16;5048810;28;20206;-81
2023/05/10 00:18:00;;;;;;;2.20;1.30;;;;;;;15.92;nan;99030.81;5048147;28;20212;-81
2023/05/10 00:20:25;;;;;;;1.00;0.90;;;;;;;15.95;nan;99037.63;5049553;28;20201;-81
2023/05/10 00:22:51;;;;;;;1.60;1.00;;;;;;;15.96;nan;99034.84;5050616;28;20293;-82
2023/05/10 00:25:16;;;;;;;1.20;1.10;;;;;;;15.96;nan;99032.22;5047415;28;20205;-81
2023/05/10 00:27:41;;;;;;;1.20;1.10;;;;;;;15.95;nan;99019.91;5049036;28;20200;-81
2023/05/10 00:30:07;;;;;;;1.67;1.30;;;;;;;15.95;nan;99014.63;5031208;28;20778;-81
2023/05/10 00:32:34;;;;;;;1.63;1.30;;;;;;;15.96;nan;99026.91;5048961;28;20172;-81
2023/05/10 00:34:59;;;;;;;1.90;1.60;;;;;;;15.97;nan;99025.09;5047005;28;20433;-82
2023/05/10 00:37:26;;;;;;;1.10;1.00;;;;;;;15.95;nan;99022.56;5029054;28;20301;-82
2023/05/10 00:39:51;;;;;;;1.83;1.30;;;;;;;15.91;nan;99024.69;5048545;28;20225;-81
2023/05/10 00:42:17;;;;;;;1.80;1.40;;;;;;;15.88;nan;99024.16;5032388;28;20225;-81
2023/05/10 00:44:42;;;;;;;1.10;1.00;;;;;;;15.89;nan;99015.22;5014179;28;20230;-81
2023/05/10 00:47:08;;;;;;;1.23;1.13;;;;;;;15.88;nan;99009.09;5047502;28;20449;-81
2023/05/10 00:49:35;;;;;;;1.95;1.20;;;;;;;15.86;nan;99015.50;5031762;28;20217;-81
2023/05/10 00:52:01;;;;;;;1.40;1.20;;;;;;;15.84;nan;99022.75;5049201;28;20207;-81
2023/05/10 00:54:27;;;;;;;2.08;1.00;;;;;;;15.82;nan;99022.88;5031263;28;20279;-81
2023/05/10 00:56:52;;;;;;;3.13;1.17;;;;;;;15.81;nan;99021.25;5048325;28;20636;-82
2023/05/10 00:59:18;;;;;;;3.90;1.20;;;;;;;15.80;nan;99024.06;5049555;28;20219;-81
2023/05/10 01:01:45;;;;;;;1.20;1.10;;;;;;;15.78;nan;99018.88;5048293;28;20216;-81
2023/05/10 01:04:12;;;;;;;1.45;1.10;;;;;;;15.78;nan;99024.19;5030624;28;20202;-81
2023/05/10 01:06:39;;;;;;;2.08;1.10;;;;;;;15.77;nan;99017.22;5029860;28;20214;-81
2023/05/10 01:09:06;;;;;;;2.17;1.50;;;;;;;15.77;nan;99022.53;5055058;28;20206;-81
2023/05/10 01:11:33;;;;;;;4.13;1.15;;;;;;;15.77;nan;99026.97;5033944;28;20595;-81
2023/05/10 01:13:59;;;;;;;2.40;1.70;;;;;;;15.74;nan;99024.59;5038180;28;20205;-81
2023/05/10 01:16:26;;;;;;;1.27;1.00;;;;;;;15.74;nan;99024.59;5036188;28;20210;-81
2023/05/10 01:18:52;;;;;;;4.03;1.10;;;;;;;15.71;nan;99025.72;5055955;28;20575;-81
2023/05/10 01:21:38;;;;;;;1.30;1.20;;;;;;;15.69;nan;99025.06;5038629;28;20213;-81
2023/05/10 01:24:22;;;;;;;2.55;1.25;;;;;;;15.65;nan;99024.47;5055256;28;20323;-81
2023/05/10 01:27:07;;;;;;;2.03;1.40;;;;;;;15.63;nan;99026.41;5033693;28;20962;-81
2023/05/10 01:29:51;;;;;;;1.45;1.08;;;;;;;15.61;nan;99033.69;4999671;28;20214;-80
2023/05/10 01:32:39;;;;;;;2.00;1.80;;;;;;;15.59;nan;99027.69;5032332;28;20687;-81
2023/05/10 01:35:12;;;;;;;2.50;1.40;;;;;;;15.59;nan;99027.69;5032454;28;20572;-81
2023/05/10 01:38:04;;;;;;;1.42;0.90;;;;;;;15.59;nan;99033.00;5037719;28;20197;-81
2023/05/10 01:40:39;;;;;;;1.13;1.00;;;;;;;15.58;nan;99035.75;5038352;28;20317;-82
2023/05/10 01:43:10;;;;;;;3.35;1.40;;;;;;;15.58;nan;99035.75;5036428;28;20252;-82
2023/05/10 01:45:50;;;;;;;1.30;1.20;;;;;;;15.58;nan;99033.97;5054197;28;20249;-81
2023/05/10 01:48:18;;;;;;;1.52;1.20;;;;;;;15.58;nan;99033.13;5056486;28;20251;-81
2023/05/10 01:50:46;;;;;;;1.20;1.10;;;;;;;15.54;nan;99027.28;5053458;28;20221;-81
2023/05/10 01:53:12;;;;;;;1.10;1.00;;;;;;;15.53;nan;99028.28;5085673;22;20402;-81
2023/05/10 01:55:47;;;;;;;2.38;2.17;;;;;;;15.50;nan;99031.22;4983809;28;20540;-80
2023/05/10 01:58:15;;;;;;;1.35;1.25;;;;;;;15.50;nan;99039.16;4996948;28;20578;-80
2023/05/10 02:00:46;;;;;;;1.40;1.30;;;;;;;15.51;nan;99042.63;5024238;28;20523;-81
2023/05/10 02:03:12;;;;;;;1.20;1.10;;;;;;;15.51;nan;99042.63;5017064;28;20224;-81
2023/05/10 02:05:39;;;;;;;2.80;1.40;;;;;;;15.52;nan;99044.28;4992558;28;20494;-81
2023/05/10 02:08:07;;;;;;;1.83;1.45;;;;;;;15.51;nan;99043.47;4992571;28;20226;-81
2023/05/10 02:10:34;;;;;;;2.00;1.52;;;;;;;15.50;nan;99044.44;5003385;28;20315;-81
2023/05/10 02:13:01;;;;;;;1.40;1.30;;;;;;;15.47;nan;99050.84;4993888;28;20251;-81
2023/05/10 02:15:28;;;;;;;3.15;1.65;;;;;;;15.46;nan;99045.69;4993544;28;20207;-81
2023/05/10 02:17:58;;;;;;;1.20;1.10;;;;;;;15.45;nan;99050.16;5002618;28;20234;-81
2023/05/10 02:20:25;;;;;;;1.10;1.00;;;;;;;15.45;nan;99059.91;4989496;28;20208;-81
2023/05/10 02:22:54;;;;;;;1.10;1.00;;;;;;;15.45;nan;99057.28;5000686;28;20766;-81
2023/05/10 02:25:21;;;;;;;1.17;1.08;;;;;;;15.45;nan;99051.97;5000220;28;20215;-81
2023/05/10 02:27:48;;;;;;;1.58;1.25;;;;;;;15.45;nan;99054.63;5000955;28;20657;-81
2023/05/10 02:30:15;;;;;;;1.85;1.27;;;;;;;15.45;nan;99057.28;5001001;28;20208;-81
2023/05/10 02:32:42;;;;;;;2.20;1.20;;;;;;;15.44;nan;99068.81;5001385;28;20580;-81
2023/05/10 02:35:10;;;;;;;1.50;1.20;;;;;;;15.43;nan;99069.81;5000918;28;20208;-81
2023/05/10 02:37:37;;;;;;;3.47;1.20;;;;;;;15.41;nan;99069.09;5000465;28;20240;-81
2023/05/10 02:40:05;;;;;;;1.38;1.27;;;;;;;15.41;nan;99075.22;5000474;28;20734;-81
2023/05/10 02:42:34;;;;;;;1.50;1.40;;;;;;;15.41;nan;99064.63;4999583;28;20216;-81
2023/05/10 02:45:03;;;;;;;1.20;1.10;;;;;;;15.41;nan;99079.69;4990642;28;20221;-81
2023/05/10 02:47:28;;;;;;;2.00;1.77;;;;;;;15.40;nan;99075.38;4999358;28;20222;-81
2023/05/10 02:49:55;;;;;;;2.03;1.50;;;;;;;15.37;nan;99067.72;4999792;28;20211;-81
2023/05/10 02:52:27;;;;;;;1.55;1.45;;;;;;;15.38;nan;99070.22;5000099;28;20474;-81
2023/05/10 02:54:56;;;;;;;1.80;1.58;;;;;;;15.39;nan;99065.75;5000554;28;20237;-81
2023/05/10 02:57:31;;;;;;;1.50;1.40;;;;;;;15.38;nan;99070.22;4999860;28;20211;-81
2023/05/10 02:59:57;;;;;;;3.00;1.70;;;;;;;15.37;nan;99065.09;5000760;28;20292;-80
2023/05/10 03:02:23;;;;;;;1.30;1.20;;;;;;;15.36;nan;99072.16;4987319;28;20943;-80
2023/05/10 03:04:48;;;;;;;2.33;1.90;;;;;;;15.38;nan;99074.69;4998933;28;20218;-81
2023/05/10 03:07:14;;;;;;;1.63;1.30;;;;;;;15.40;nan;99078.03;4985686;28;20216;-81
2023/05/10 03:09:40;;;;;;;2.53;1.23;;;;;;;15.39;nan;99082.50;4988400;28;20199;-81
2023/05/10 03:12:08;;;;;;;3.43;1.20;;;;;;;15.37;nan;99079.16;4988398;28;20492;-81
2023/05/10 03:14:37;;;;;;;2.50;2.30;;;;;;;15.38;nan;99079.97;5000554;28;20224;-81
2023/05/10 03:17:03;;;;;;;2.42;1.50;;;;;;;15.39;nan;99076.34;4987312;28;20208;-80
2023/05/10 03:19:54;;;;;;;1.50;1.30;;;;;;;15.40;nan;99072.75;4999535;28;20315;-80
2023/05/10 03:22:32;;;;;;;1.70;1.60;;;;;;;15.40;nan;99085.97;4988962;28;20216;-80
2023/05/10 03:24:58;;;;;;;1.35;1.25;;;;;;;15.40;nan;99085.97;4987736;28;20514;-81
2023/05/10 03:27:27;;;;;;;2.38;1.50;;;;;;;15.41;nan;99085.81;4987748;28;20338;-80
2023/05/10 03:29:55;;;;;;;1.55;1.45;;;;;;;15.42;nan;99084.84;4988353;28;20207;-81
2023/05/10 03:32:21;;;;;;;1.77;1.50;;;;;;;15.42;nan;99086.66;4996979;28;20190;-80
2023/05/10 03:34:47;;;;;;;2.40;1.60;;;;;;;15.41;nan;99084.97;4987013;28;20246;-81
2023/05/10 03:37:12;;;;;;;9.70;1.70;;;;;;;15.40;nan;99081.50;4998799;28;20298;-81
2023/05/10 03:39:38;;;;;;;1.23;1.10;;;;;;;15.37;nan;99087.09;4988493;28;20367;-81
2023/05/10 03:42:06;;;;;;;2.33;1.80;;;;;;;15.33;nan;99084.84;4987276;28;20217;-81
2023/05/10 03:44:33;;;;;;;1.53;1.43;;;;;;;15.29;nan;99083.47;4986687;28;20227;-81
2023/05/10 03:46:58;;;;;;;2.65;1.63;;;;;;;15.26;nan;99085.41;5000220;28;20577;-80
2023/05/10 03:49:24;;;;;;;4.45;2.20;;;;;;;15.26;nan;99076.66;4987764;28;20218;-80
2023/05/10 03:51:49;;;;;;;3.33;2.70;;;;;;;15.23;nan;99084.88;4999381;28;20202;-81
2023/05/10 03:54:15;;;;;;;3.93;2.80;;;;;;;15.20;nan;99080.69;4986319;28;20238;-80
2023/05/10 03:56:40;;;;;;;3.23;2.00;;;;;;;15.19;nan;99086.94;4999650;28;20709;-82
2023/05/10 03:59:07;;;;;;;2.43;2.23;;;;;;;15.21;nan;99092.94;4987286;28;20221;-81
2023/05/10 04:01:33;;;;;;;1.50;1.40;;;;;;;15.22;nan;99085.84;4987168;28;20211;-81
2023/05/10 04:03:59;;;;;;;2.85;1.90;;;;;;;15.24;nan;99091.81;5007139;28;20219;-81
2023/05/10 04:06:24;;;;;;;2.97;1.60;;;;;;;15.24;nan;99083.88;5001241;28;20682;-81
2023/05/10 04:08:50;;;;;;;2.43;2.20;;;;;;;15.26;nan;99087.25;4987617;28;20220;-81
2023/05/10 04:11:15;;;;;;;4.80;1.97;;;;;;;15.24;nan;99086.53;4998652;28;20221;-81
2023/05/10 04:13:41;;;;;;;1.67;1.57;;;;;;;15.22;nan;99091.13;4999622;28;20231;-81
2023/05/10 04:16:06;;;;;;;1.47;1.37;;;;;;;15.21;nan;99089.47;4998488;28;20212;-80
2023/05/10 04:18:31;;;;;;;2.20;1.70;;;;;;;15.18;nan;99089.75;4997740;28;20729;-81
2023/05/10 04:20:57;;;;;;;1.40;1.30;;;;;;;15.18;nan;99090.56;4998775;28;20225;-81
2023/05/10 04:23:23;;;;;;;1.67;1.57;;;;;;;15.19;nan;99086.13;4998800;28;20347;-81
2023/05/10 04:25:48;;;;;;;1.73;1.63;;;;;;;15.18;nan;99080.00;4999078;28;20210;-81
2023/05/10 04:28:13;;;;;;;5.10;3.40;;;;;;;15.18;nan;99087.09;4997742;28;21222;-81
2023/05/10 04:30:40;;;;;;;4.70;3.23;;;;;;;15.18;nan;99089.75;4996609;28;20470;-81
2023/05/10 04:33:05;;;;;;;1.95;1.83;;;;;;;15.16;nan;99092.53;4996638;28;20252;-81
2023/05/10 04:35:31;;;;;;;3.70;2.33;;;;;;;15.16;nan;99081.94;4999587;28;20289;-81
2023/05/10 04:37:56;;;;;;;6.50;3.57;;;;;;;15.17;nan;99080.94;4999916;28;20203;-81
2023/05/10 04:40:21;;;;;;;2.27;2.00;;;;;;;15.17;nan;99082.78;4999279;28;20226;-81
2023/05/10 04:42:47;;;;;;;2.13;1.93;;;;;;;15.18;nan;99085.28;4997486;28;20276;-81
2023/05/10 04:45:14;;;;;;;2.17;1.97;;;;;;;15.18;nan;99082.63;4998767;28;20300;-81
2023/05/10 04:47:40;;;;;;;1.88;1.77;;;;;;;15.18;nan;99082.63;4999178;28;20214;-81
2023/05/10 04:50:06;;;;;;;5.27;2.77;;;;;;;15.18;nan;99090.56;4999379;28;20214;-81
2023/05/10 04:52:31;;;;;;;4.10;2.20;;;;;;;15.17;nan;99094.19;4995656;28;20206;-81
2023/05/10 04:54:57;;;;;;;6.70;2.00;;;;;;;15.14;nan;99097.09;4985608;28;20313;-80
2023/05/10 04:57:22;;;;;;;2.50;1.60;;;;;;;15.12;nan;99101.72;4997698;28;20208;-80
2023/05/10 04:59:47;;;;;;;1.40;1.30;;;;;;;15.11;nan;99097.38;4997101;28;20235;-81
2023/05/10 05:02:13;;;;;;;1.80;1.70;;;;;;;15.12;nan;99101.72;4998958;28;20565;-80
2023/05/10 05:04:38;;;;;;;2.70;1.77;;;;;;;15.11;nan;99102.69;4997883;28;20212;-80
2023/05/10 05:07:04;;;;;;;1.63;1.53;;;;;;;15.12;nan;99111.44;4998921;28;20276;-80
2023/05/10 05:09:31;;;;;;;2.07;1.77;;;;;;;15.12;nan;99108.81;4999017;28;20215;-80
2023/05/10 05:11:57;;;;;;;1.90;1.70;;;;;;;15.11;nan;99105.31;4999166;28;20466;-80
2023/05/10 05:14:24;;;;;;;1.97;1.57;;;;;;;15.12;nan;99109.66;4998573;28;20237;-80
2023/05/10 05:16:51;;;;;;;2.13;1.92;;;;;;;15.14;nan;99112.16;5000241;28;20467;-80
2023/05/10 05:19:16;;;;;;;1.50;1.40;;;;;;;15.14;nan;99120.91;4998110;28;20208;-79
2023/05/10 05:21:42;;;;;;;1.63;1.53;;;;;;;15.14;nan;99123.56;4998312;28;20221;-80
2023/05/10 05:24:07;;;;;;;2.07;1.50;;;;;;;15.15;nan;99125.25;4997963;28;20824;-79
2023/05/10 05:26:33;;;;;;;2.03;1.83;;;;;;;15.16;nan;99126.91;4999125;28;20214;-80
2023/05/10 05:28:58;;;;;;;1.87;1.70;;;;;;;15.18;nan;99124.97;4999502;28;20251;-79
2023/05/10 05:31:24;;;;;;;2.83;1.83;;;;;;;15.17;nan;99131.22;4997580;28;20235;-79
2023/05/10 05:33:49;;;;;;;2.30;2.07;;;;;;;15.18;nan;99137.38;5000117;28;21501;-79
2023/05/10 05:36:14;;;;;;;2.07;1.80;;;;;;;15.17;nan;99133.88;4999218;28;20293;-80
2023/05/10 05:38:40;;;;;;;2.00;1.90;;;;;;;15.15;nan;99138.47;4999915;28;21184;-79
2023/05/10 05:41:05;;;;;;;2.23;1.80;;;;;;;15.15;nan;99137.63;4999953;28;20211;-80
2023/05/10 05:43:30;;;;;;;1.93;1.43;;;;;;;15.13;nan;99147.53;5003287;28;20217;-79
2023/05/10 05:45:57;;;;;;;2.00;1.80;;;;;;;15.12;nan;99153.78;5005355;28;20639;-79
2023/05/10 05:48:23;;;;;;;2.25;1.75;;;;;;;15.11;nan;99155.59;5001855;28;20429;-80
2023/05/10 05:50:49;;;;;;;2.87;1.73;;;;;;;15.13;nan;99160.75;5000861;28;20221;-80
2023/05/10 05:53:14;;;;;;;1.93;1.83;;;;;;;15.15;nan;99169.38;4998521;28;20225;-80
2023/05/10 05:55:39;;;;;;;2.30;1.83;;;;;;;15.18;nan;99169.94;5003452;28;20206;-80
2023/05/10 05:58:05;;;;;;;2.67;1.90;;;;;;;15.21;nan;99161.72;5002944;28;20211;-80
2023/05/10 06:00:30;;;;;;;2.00;1.77;;;;;;;15.19;nan;99165.47;5005316;28;20226;-80
2023/05/10 06:02:56;;;;;;;2.23;1.70;;;;;;;15.18;nan;99167.31;5005622;28;20256;-80
2023/05/10 06:05:22;;;;;;;2.33;2.13;;;;;;;15.20;nan;99172.44;5005192;28;20958;-80
2023/05/10 06:07:47;;;;;;;3.37;2.30;;;;;;;15.20;nan;99175.09;5004368;28;20479;-81
2023/05/10 06:10:13;;;;;;;1.93;1.80;;;;;;;15.20;nan;99177.72;5003789;28;20293;-80
2023/05/10 06:12:38;;;;;;;2.17;1.70;;;;;;;15.21;nan;99182.91;5004521;28;20222;-80
2023/05/10 06:15:04;;;;;;;3.30;2.13;;;;;;;15.19;nan;99176.91;5006810;28;20210;-80
2023/05/10 06:17:29;;;;;;;2.53;2.17;;;;;;;15.19;nan;99184.00;5006092;28;20202;-80
2023/05/10 06:19:55;;;;;;;2.73;2.00;;;;;;;15.19;nan;99184.00;5007380;28;20665;-80
2023/05/10 06:22:22;;;;;;;2.30;1.87;;;;;;;15.17;nan;99188.59;5006051;28;20206;-80
2023/05/10 06:24:48;;;;;;;1.73;1.60;;;;;;;15.18;nan;99191.09;5005910;28;20554;-80
2023/05/10 06:27:14;;;;;;;2.20;1.65;;;;;;;15.15;nan;99198.47;5004678;28;20257;-79
2023/05/10 06:29:39;;;;;;;2.60;2.17;;;;;;;15.14;nan;99194.16;5003456;28;20261;-80
2023/05/10 06:32:04;;;;;;;1.80;1.60;;;;;;;15.09;nan;99199.84;5005766;28;20207;-81
2023/05/10 06:34:30;;;;;;;2.10;1.87;;;;;;;15.06;nan;99200.13;5006278;28;20198;-81
2023/05/10 06:36:55;;;;;;;2.37;1.80;;;;;;;15.03;nan;99200.41;5002761;28;20327;-81
2023/05/10 06:39:21;;;;;;;2.20;1.57;;;;;;;15.02;nan;99206.69;5001354;28;20252;-80
2023/05/10 06:41:46;;;;;;;1.70;1.53;;;;;;;15.02;nan;99201.38;5001596;28;20219;-81
2023/05/10 06:44:12;;;;;;;6.57;2.40;;;;;;;15.01;nan;99204.97;5005587;28;20221;-80
2023/05/10 06:46:37;;;;;;;2.88;2.00;;;;;;;15.01;nan;99200.56;5009633;28;20211;-80
2023/05/10 06:49:03;;;;;;;4.50;2.40;;;;;;;15.03;nan;99209.16;5009315;28;20214;-80
2023/05/10 06:51:28;;;;;;;2.50;1.83;;;;;;;15.08;nan;99202.66;5009205;28;20765;-81
2023/05/10 06:53:54;;;;;;;2.43;1.87;;;;;;;15.10;nan;99209.47;5005928;28;20223;-80
2023/05/10 06:56:21;;;;;;;5.80;2.03;;;;;;;15.14;nan;99210.84;5001575;28;20208;-80
2023/05/10 06:58:47;;;;;;;2.38;2.17;;;;;;;15.19;nan;99205.16;5001541;28;20211;-81
2023/05/10 07:01:12;;;;;;;2.17;1.98;;;;;;;15.25;nan;99209.91;5001607;28;20205;-80
2023/05/10 07:03:38;;;;;;;3.23;2.10;;;;;;;15.36;nan;99208.94;5001562;28;20472;-80
2023/05/10 07:06:04;;;;;;;3.42;2.55;;;;;;;15.53;nan;99205.63;4999013;28;20439;-79
2023/05/10 07:08:31;;;;;;;2.30;2.17;;;;;;;15.74;nan;99205.50;5001435;28;20216;-80
2023/05/10 07:11:01;;;;;;;2.42;2.17;;;;;;;15.90;nan;99216.38;5001519;28;21434;-80
2023/05/10 07:13:26;;;;;;;4.68;2.58;;;;;;;15.99;nan;99208.56;5001047;28;20294;-79
2023/05/10 07:15:51;;;;;;;6.30;3.63;;;;;;;16.10;nan;99209.22;5000779;28;20206;-80
2023/05/10 07:18:17;;;;;;;3.63;2.57;;;;;;;16.31;nan;99217.00;5000874;28;20210;-79
2023/05/10 07:20:42;;;;;;;1.57;1.47;;;;;;;16.62;nan;99210.59;5000679;28;20203;-78
2023/05/10 07:23:08;;;;;;;2.50;1.93;;;;;;;16.95;nan;99220.66;5000742;28;20762;-78
2023/05/10 07:25:33;;;;;;;1.93;1.77;;;;;;;17.11;nan;99211.22;4999921;28;20370;-79
2023/05/10 07:27:58;;;;;;;2.13;1.93;;;;;;;17.12;nan;99213.72;5000541;28;20212;-79
2023/05/10 07:30:24;;;;;;;11.00;3.20;;;;;;;17.08;nan;99203.56;4999700;28;20289;-80
2023/05/10 07:32:49;;;;;;;4.57;2.63;;;;;;;17.09;nan;99206.03;5000810;28;20226;-80
2023/05/10 07:35:15;;;;;;;5.30;2.60;;;;;;;17.34;nan;99206.34;4999516;28;20520;-80
2023/05/10 07:37:40;;;;;;;4.37;2.33;;;;;;;17.66;nan;99216.41;5000043;28;20206;-81
2023/05/10 07:40:06;;;;;;;6.73;2.30;;;;;;;17.94;nan;99222.50;4990665;28;20276;-80
2023/05/10 07:42:31;;;;;;;1.75;1.65;;;;;;;18.04;nan;99220.59;4997942;28;20212;-80
2023/05/10 07:44:57;;;;;;;2.40;2.20;;;;;;;17.92;nan;99225.28;4999930;28;20211;-80
2023/05/10 07:47:23;;;;;;;2.03;1.50;;;;;;;17.88;nan;99220.47;4999246;28;20623;-80
2023/05/10 07:49:48;;;;;;;3.03;1.77;;;;;;;17.98;nan;99220.34;4999072;28;20311;-79
2023/05/10 07:52:14;;;;;;;3.63;2.80;;;;;;;18.16;nan;99220.31;4999007;28;20214;-79
2023/05/10 07:54:39;;;;;;;2.37;1.70;;;;;;;18.40;nan;99217.81;4999920;28;20573;-80
2023/05/10 07:57:05;;;;;;;5.63;1.90;;;;;;;18.69;nan;99217.47;4999133;28;20262;-80
2023/05/10 07:59:30;;;;;;;2.60;1.80;;;;;;;19.15;nan;99217.19;4998515;28;20293;-80
2023/05/10 08:01:56;;;;;;;4.20;1.83;;;;;;;19.66;nan;99213.47;4997873;28;20601;-80
2023/05/10 08:04:21;;;;;;;4.03;2.10;;;;;;;20.10;nan;99210.47;4998386;28;20091;-80
2023/05/10 08:06:47;;;;;;;3.13;1.80;;;;;;;20.31;nan;99207.25;4998123;28;20745;-80
2023/05/10 08:09:13;;;;;;;3.63;2.70;;;;;;;20.41;nan;99203.56;4997478;28;20464;-80
2023/05/10 08:11:38;;;;;;;2.37;1.60;;;;;;;20.41;nan;99207.06;4997076;28;20219;-80
2023/05/10 08:14:04;;;;;;;2.67;2.47;;;;;;;20.28;nan;99206.75;4995764;28;20217;-80
2023/05/10 08:16:29;;;;;;;3.03;2.00;;;;;;;20.07;nan;99202.81;4995116;28;20695;-80
2023/05/10 08:18:55;;;;;;;4.33;2.63;;;;;;;19.87;nan;99196.13;4996413;28;20213;-80
2023/05/10 08:21:20;;;;;;;4.20;1.83;;;;;;;19.63;nan;99189.81;4995787;28;21140;-79
2023/05/10 08:23:45;;;;;;;2.50;1.63;;;;;;;19.40;nan;99194.94;4996023;28;20399;-80
2023/05/10 08:26:11;;;;;;;1.53;1.43;;;;;;;19.21;nan;99189.91;4996491;28;20249;-80
2023/05/10 08:28:37;;;;;;;1.57;1.47;;;;;;;19.06;nan;99191.53;5000318;28;20226;-80
2023/05/10 08:31:02;;;;;;;4.30;1.67;;;;;;;18.84;nan;99195.63;4999769;28;20588;-80
2023/05/10 08:33:27;;;;;;;1.73;1.63;;;;;;;18.62;nan;99192.50;4999401;28;20284;-80
2023/05/10 08:35:53;;;;;;;5.20;1.80;;;;;;;18.44;nan;99186.41;4999041;28;20498;-80
2023/05/10 08:38:18;;;;;;;2.10;1.43;;;;;;;18.21;nan;99194.13;4999328;28;20207;-78
2023/05/10 08:40:45;;;;;;;1.60;1.50;;;;;;;18.06;nan;99181.38;4999437;28;20585;-80
2023/05/10 08:43:15;;;;;;;2.90;1.87;;;;;;;17.98;nan;99188.47;5000078;28;20230;-80
2023/05/10 08:45:47;;;;;;;1.73;1.60;;;;;;;17.78;nan;99180.66;4998978;28;20485;-79
2023/05/10 08:48:14;;;;;;;2.88;1.67;;;;;;;17.86;nan;99183.41;4989901;28;21001;-80
2023/05/10 08:50:41;;;;;;;2.10;1.90;;;;;;;17.91;nan;99197.06;4999441;28;20232;-79
2023/05/10 08:53:11;;;;;;;2.85;1.95;;;;;;;17.96;nan;99224.97;4999066;28;20246;-80
2023/05/10 08:55:38;;;;;;;4.57;1.75;;;;;;;17.69;nan;99224.91;4998604;28;20226;-80
2023/05/10 08:58:05;;;;;;;2.72;1.33;;;;;;;17.27;nan;99219.34;4999562;28;20824;-80
2023/05/10 09:00:31;;;;;;;4.03;1.60;;;;;;;16.84;nan;99217.38;4999511;28;20212;-80
2023/05/10 09:03:00;;;;;;;3.27;1.13;;;;;;;16.47;nan;99224.34;4999026;28;20222;-80
2023/05/10 09:05:26;;;;;;;2.80;1.60;;;;;;;16.22;nan;99223.13;4998938;28;20509;-79
2023/05/10 09:07:51;;;;;;;2.70;1.60;;;;;;;16.03;nan;99223.19;5000217;28;20475;-80
2023/05/10 09:10:17;;;;;;;1.60;1.03;;;;;;;15.91;nan;99241.06;5001032;28;20511;-80
2023/05/10 09:12:43;;;;;;;1.77;1.27;;;;;;;15.82;nan;99241.88;5000695;28;20227;-80
2023/05/10 09:15:09;;;;;;;1.75;1.30;;;;;;;15.79;nan;99237.69;5001412;28;20468;-80
2023/05/10 09:17:36;;;;;;;5.97;1.33;;;;;;;15.84;nan;99245.22;5001195;28;20209;-80
2023/05/10 09:20:03;;;;;;;3.17;1.30;;;;;;;15.87;nan;99245.78;5001998;28;20232;-80
2023/05/10 09:22:33;;;;;;;3.72;1.33;;;;;;;15.85;nan;99231.84;5000068;28;20310;-80
2023/05/10 09:25:12;;;;;;;3.33;1.63;;;;;;;15.86;nan;99243.28;4998936;28;20238;-80
2023/05/10 09:27:39;;;;;;;1.85;1.48;;;;;;;15.92;nan;99246.19;5000357;28;20658;-80
2023/05/10 09:30:06;;;;;;;6.03;1.73;;;;;;;16.00;nan;99248.13;5002671;28;20218;-80
2023/05/10 09:32:39;;;;;;;2.20;1.50;;;;;;;16.01;nan;99254.25;5001641;28;20203;-80
2023/05/10 09:35:12;;;;;;;1.85;1.30;;;;;;;16.12;nan;99265.56;5002905;28;20434;-80
2023/05/10 09:37:43;;;;;;;1.40;1.30;;;;;;;16.25;nan;99259.94;5003531;28;20222;-80
2023/05/10 09:40:13;;;;;;;2.03;1.50;;;;;;;16.33;nan;99261.88;5002911;28;20225;-81
2023/05/10 09:42:41;;;;;;;11.07;1.63;;;;;;;16.43;nan;99261.88;5001842;28;20295;-80
2023/05/10 09:45:07;;;;;;;3.92;1.33;;;;;;;16.52;nan;99264.47;5002729;28;20217;-81
2023/05/10 09:47:34;;;;;;;5.23;1.40;;;;;;;16.60;nan;99264.59;4999578;28;20211;-82
2023/05/10 09:50:04;;;;;;;1.70;1.60;;;;;;;16.66;nan;99255.25;4999580;28;20968;-81
2023/05/10 09:52:31;;;;;;;4.13;1.15;;;;;;;16.72;nan;99251.19;4998054;28;20232;-81
2023/05/10 09:54:56;;;;;;;6.07;1.80;;;;;;;16.76;nan;99255.19;4999363;28;20344;-80
2023/05/10 09:57:23;;;;;;;1.53;1.27;;;;;;;16.68;nan;99247.13;4999599;28;20657;-81
2023/05/10 09:59:50;;;;;;;2.35;1.48;;;;;;;16.69;nan;99249.66;4998855;28;20208;-81
2023/05/10 10:02:16;;;;;;;2.10;1.30;;;;;;;16.86;nan;99252.56;5000607;28;20241;-81
2023/05/10 10:04:42;;;;;;;1.58;1.13;;;;;;;17.12;nan;99242.06;5000131;28;20450;-81
2023/05/10 10:07:08;;;;;;;2.75;1.60;;;;;;;17.10;nan;99255.50;5004526;28;20268;-81
2023/05/10 10:09:34;;;;;;;2.13;1.33;;;;;;;17.13;nan;99247.25;4996370;28;20691;-81
2023/05/10 10:12:01;;;;;;;4.70;1.50;;;;;;;17.15;nan;99252.41;5005835;28;20225;-81
2023/05/10 10:14:28;;;;;;;1.60;1.50;;;;;;;17.22;nan;99264.91;5006319;28;20881;-80
2023/05/10 10:16:54;;;;;;;1.90;1.10;;;;;;;17.19;nan;99254.59;5007067;28;20951;-81
2023/05/10 10:19:20;;;;;;;1.70;1.23;;;;;;;17.26;nan;99260.16;5007247;28;20736;-80
2023/05/10 10:21:49;;;;;;;2.17;1.30;;;;;;;17.30;nan;99250.91;5003966;28;20228;-81
2023/05/10 10:24:15;;;;;;;2.97;1.38;;;;;;;17.32;nan;99254.25;5005642;28;20254;-81
2023/05/10 10:26:42;;;;;;;2.07;1.40;;;;;;;17.19;nan;99243.16;5002601;28;20306;-81
2023/05/10 10:29:36;;;;;;;1.77;1.15;;;;;;;17.14;nan;99248.06;5003021;28;20345;-79
2023/05/10 10:32:19;;;;;;;1.80;1.50;;;;;;;17.04;nan;99250.78;5003057;28;20231;-80
2023/05/10 10:34:45;;;;;;;2.55;1.50;;;;;;;17.15;nan;99260.38;5002683;28;20438;-80
2023/05/10 10:37:10;;;;;;;1.50;1.33;;;;;;;17.34;nan;99249.63;5002952;28;20215;-80
2023/05/10 10:39:36;;;;;;;3.63;1.60;;;;;;;17.62;nan;99253.06;5002694;28;20216;-80
2023/05/10 10:42:03;;;;;;;1.47;1.30;;;;;;;17.90;nan;99253.00;5002529;28;20223;-80
2023/05/10 10:44:34;;;;;;;1.50;1.40;;;;;;;18.22;nan;99248.94;5004924;28;20479;-80
2023/05/10 10:47:02;;;;;;;2.30;1.20;;;;;;;18.50;nan;99244.31;5003991;28;20335;-79
2023/05/10 10:49:31;;;;;;;2.17;1.05;;;;;;;18.67;nan;99243.41;5002039;28;20213;-80
2023/05/10 10:52:20;;;;;;;1.67;1.30;;;;;;;18.95;nan;99244.03;5002689;28;20220;-79
2023/05/10 10:54:57;;;;;;;1.95;1.60;;;;;;;19.29;nan;99245.00;5002513;28;20239;-79
2023/05/10 10:57:22;;;;;;;4.43;1.63;;;;;;;19.34;nan;99240.03;5002610;28;20216;-80
2023/05/10 10:59:48;;;;;;;2.13;1.20;;;;;;;19.56;nan;99230.59;5004433;28;20519;-79
2023/05/10 11:02:33;;;;;;;2.60;1.40;;;;;;;19.79;nan;99231.63;5002644;28;20831;-80
2023/05/10 11:04:59;;;;;;;1.63;1.17;;;;;;;19.96;nan;99234.31;5001865;28;20465;-79
2023/05/10 11:07:24;;;;;;;1.70;0.90;;;;;;;19.96;nan;99232.47;4993944;28;20509;-80
2023/05/10 11:09:50;;;;;;;1.10;1.00;;;;;;;20.00;nan;99228.44;5002445;28;20486;-80
2023/05/10 11:12:15;;;;;;;2.27;0.80;;;;;;;20.05;nan;99230.63;5001073;28;20221;-79
2023/05/10 11:14:41;;;;;;;1.33;0.80;;;;;;;20.05;nan;99231.44;5001076;28;20282;-79
2023/05/10 11:17:23;;;;;;;1.73;1.50;;;;;;;20.07;nan;99233.97;4999882;28;20220;-79
2023/05/10 11:20:09;;;;;;;1.77;1.10;;;;;;;20.25;nan;99226.63;5000914;28;20215;-79
2023/05/10 11:22:54;;;;;;;1.73;1.20;;;;;;;20.48;nan;99225.91;5000769;28;20752;-78
2023/05/10 11:25:20;;;;;;;1.87;1.20;;;;;;;20.52;nan;99221.88;4999970;28;20480;-79
2023/05/10 11:27:47;;;;;;;1.00;0.90;;;;;;;20.64;nan;99214.38;5000269;28;20479;-78
2023/05/10 11:30:14;;;;;;;1.87;1.20;;;;;;;20.72;nan;99214.34;5000212;28;20494;-77
2023/05/10 11:32:40;;;;;;;4.43;1.20;;;;;;;20.75;nan;99222.84;5000349;28;20494;-79
2023/05/10 11:35:11;;;;;;;1.30;1.00;;;;;;;20.78;nan;99219.00;5000496;28;20477;-79
2023/05/10 11:37:41;;;;;;;2.00;1.37;;;;;;;20.81;nan;99223.97;4998787;28;20450;-79
2023/05/10 11:40:09;;;;;;;1.30;1.00;;;;;;;20.97;nan;99212.41;4988851;28;20835;-79
2023/05/10 11:42:37;;;;;;;3.80;1.30;;;;;;;21.06;nan;99221.19;4999514;28;20478;-78
2023/05/10 11:45:03;;;;;;;3.25;1.35;;;;;;;20.98;nan;99222.91;4998104;28;20461;-77
2023/05/10 11:47:28;;;;;;;1.27;1.17;;;;;;;20.89;nan;99217.78;4999665;28;20485;-78
2023/05/10 11:49:53;;;;;;;0.97;0.80;;;;;;;20.81;nan;99218.63;4999140;28;20213;-79
2023/05/10 11:52:19;;;;;;;4.20;1.53;;;;;;;20.61;nan;99207.53;4997553;28;20223;-79